createdAt,value
2019-02-27T00:01:41.455Z,3.65
2019-02-27T00:04:07.765Z,3.74
2019-02-27T00:06:34.072Z,3.82
2019-02-27T00:09:01.151Z,3.71
2019-02-27T00:11:26.697Z,3.57
2019-02-27T00:13:53.033Z,3.56
2019-02-27T00:16:19.346Z,3.71
2019-02-27T00:18:45.657Z,3.77
2019-02-27T00:21:11.967Z,3.80
2019-02-27T00:23:38.275Z,3.73
2019-02-27T00:26:08.743Z,3.63
2019-02-27T00:28:30.897Z,3.52
2019-02-27T00:30:57.201Z,3.55
2019-02-27T00:33:26.196Z,3.67
2019-02-27T00:35:49.832Z,3.66
2019-02-27T00:38:16.156Z,3.60
2019-02-27T00:40:42.472Z,3.44
2019-02-27T00:43:08.785Z,3.45
2019-02-27T00:45:35.135Z,3.46
2019-02-27T00:48:01.409Z,3.50
2019-02-27T00:50:27.726Z,3.48
2019-02-27T00:52:54.047Z,3.35
2019-02-27T00:55:20.347Z,3.19
2019-02-27T00:57:46.657Z,3.06
2019-02-27T01:00:13.621Z,3.01
2019-02-27T01:02:39.278Z,2.99
2019-02-27T01:05:09.519Z,2.96
2019-02-27T01:07:34.491Z,2.97
2019-02-27T01:10:00.806Z,2.99
2019-02-27T01:12:27.200Z,3.06
2019-02-27T01:14:53.537Z,3.08
2019-02-27T01:17:20.911Z,3.07
2019-02-27T01:19:46.177Z,3.03
2019-02-27T01:22:12.486Z,2.99
2019-02-27T01:24:38.802Z,3.00
2019-02-27T01:27:05.417Z,3.00
2019-02-27T01:29:31.408Z,3.01
2019-02-27T01:31:58.253Z,3.02
2019-02-27T01:34:24.070Z,3.00
2019-02-27T01:36:50.344Z,2.99
2019-02-27T01:39:16.655Z,3.00
2019-02-27T01:41:42.973Z,3.01
2019-02-27T01:44:11.182Z,3.01
2019-02-27T01:46:35.619Z,2.98
2019-02-27T01:49:01.938Z,3.02
2019-02-27T01:51:28.887Z,3.02
2019-02-27T01:53:54.552Z,3.06
2019-02-27T01:56:20.896Z,3.09
2019-02-27T01:58:47.205Z,3.11
2019-02-27T02:01:13.663Z,3.19
2019-02-27T02:03:39.973Z,3.25
2019-02-27T02:06:06.282Z,3.32
2019-02-27T02:08:32.606Z,3.38
2019-02-27T02:11:01.348Z,3.41
2019-02-27T02:13:25.229Z,3.41
2019-02-27T02:15:51.545Z,3.32
2019-02-27T02:18:17.852Z,3.22
2019-02-27T02:20:44.165Z,3.28
2019-02-27T02:23:14.002Z,3.29
2019-02-27T02:25:36.802Z,3.33
2019-02-27T02:28:03.109Z,3.37
2019-02-27T02:30:30.820Z,3.38
2019-02-27T02:32:55.722Z,3.39
2019-02-27T02:35:22.049Z,3.39
2019-02-27T02:37:48.337Z,3.44
2019-02-27T02:40:14.687Z,3.46
2019-02-27T02:42:40.997Z,3.48
2019-02-27T02:45:07.326Z,3.47
2019-02-27T02:47:33.633Z,3.45
2019-02-27T02:49:59.945Z,3.48
2019-02-27T02:52:26.248Z,3.55
2019-02-27T02:54:52.564Z,3.61
2019-02-27T02:57:18.919Z,3.61
2019-02-27T02:59:45.225Z,3.61
2019-02-27T03:02:11.538Z,3.63
2019-02-27T03:04:37.851Z,3.61
2019-02-27T03:07:07.147Z,3.65
2019-02-27T03:09:31.647Z,3.68
2019-02-27T03:11:56.783Z,3.69
2019-02-27T03:14:23.088Z,3.75
2019-02-27T03:16:49.399Z,3.80
2019-02-27T03:19:15.711Z,3.88
2019-02-27T03:21:42.021Z,3.89
2019-02-27T03:24:08.334Z,4.00
2019-02-27T03:26:34.640Z,4.07
2019-02-27T03:29:00.957Z,4.13
2019-02-27T03:31:27.271Z,4.11
2019-02-27T03:33:53.602Z,4.13
2019-02-27T03:36:19.913Z,4.08
2019-02-27T03:38:46.230Z,4.05
2019-02-27T03:41:12.537Z,4.06
2019-02-27T03:43:38.844Z,4.10
2019-02-27T03:46:06.278Z,4.15
2019-02-27T03:48:31.459Z,4.17
2019-02-27T03:50:57.780Z,4.17
2019-02-27T03:53:24.097Z,4.18
2019-02-27T03:55:50.416Z,4.17
2019-02-27T03:58:16.729Z,4.14
2019-02-27T04:00:43.034Z,4.21
2019-02-27T04:03:09.339Z,4.34
2019-02-27T04:05:41.018Z,4.38
2019-02-27T04:08:07.073Z,4.41
2019-02-27T04:10:31.290Z,4.40
2019-02-27T04:12:54.592Z,4.41
2019-02-27T04:15:20.919Z,4.39
2019-02-27T04:17:51.849Z,4.32
2019-02-27T04:20:15.527Z,4.24
2019-02-27T04:22:39.820Z,4.27
2019-02-27T04:25:06.136Z,4.29
2019-02-27T04:27:32.438Z,4.20
2019-02-27T04:29:58.747Z,4.17
2019-02-27T04:32:25.090Z,4.10
2019-02-27T04:34:51.383Z,4.12
2019-02-27T04:37:20.196Z,4.22
2019-02-27T04:39:44.007Z,4.31
2019-02-27T04:42:10.312Z,4.35
2019-02-27T04:44:38.876Z,3.97
2019-02-27T04:47:02.995Z,3.74
2019-02-27T04:49:29.308Z,3.45
2019-02-27T04:51:55.704Z,3.18
2019-02-27T04:54:22.258Z,2.83
2019-02-27T04:56:48.519Z,2.60
2019-02-27T04:59:18.203Z,2.59
2019-02-27T05:01:41.129Z,2.51
2019-02-27T05:04:07.434Z,2.61
2019-02-27T05:06:33.748Z,2.75
2019-02-27T05:09:00.744Z,2.90
2019-02-27T05:11:27.018Z,3.03
2019-02-27T05:13:54.267Z,3.03
2019-02-27T05:16:18.979Z,3.05
2019-02-27T05:18:45.284Z,3.04
2019-02-27T05:21:11.594Z,2.92
2019-02-27T05:23:37.899Z,2.86
2019-02-27T05:26:04.206Z,2.89
2019-02-27T05:28:32.091Z,2.92
2019-02-27T05:30:56.824Z,2.93
2019-02-27T05:33:23.135Z,2.98
2019-02-27T05:35:49.441Z,2.98
2019-02-27T05:38:15.746Z,2.96
2019-02-27T05:40:42.060Z,3.08
2019-02-27T05:43:08.368Z,3.08
2019-02-27T05:45:34.689Z,2.94
2019-02-27T05:48:00.997Z,2.93
2019-02-27T05:50:27.303Z,2.98
2019-02-27T05:52:53.610Z,2.97
2019-02-27T05:55:19.924Z,2.99
2019-02-27T05:57:46.224Z,3.08
2019-02-27T06:00:12.531Z,3.24
2019-02-27T06:02:38.849Z,3.37
2019-02-27T06:05:05.150Z,3.42
2019-02-27T06:07:31.462Z,3.57
2019-02-27T06:09:57.829Z,3.48
2019-02-27T06:12:24.085Z,3.26
2019-02-27T06:14:54.778Z,3.23
2019-02-27T06:17:16.705Z,3.24
2019-02-27T06:19:43.030Z,3.22
2019-02-27T06:22:09.340Z,3.21
2019-02-27T06:24:35.649Z,3.26
2019-02-27T06:27:06.113Z,3.28
2019-02-27T06:29:28.382Z,3.31
2019-02-27T06:31:54.583Z,3.39
2019-02-27T06:34:22.345Z,3.49
2019-02-27T06:36:47.208Z,3.45
2019-02-27T06:39:13.519Z,3.45
2019-02-27T06:41:40.034Z,3.45
2019-02-27T06:44:06.154Z,3.57
2019-02-27T06:46:32.462Z,3.73
2019-02-27T06:48:58.772Z,3.78
2019-02-27T06:51:25.082Z,3.73
2019-02-27T06:53:51.478Z,3.73
2019-02-27T06:56:17.797Z,3.89
2019-02-27T06:58:44.101Z,4.02
2019-02-27T07:01:13.071Z,4.11
2019-02-27T07:03:36.709Z,4.21
2019-02-27T07:06:03.017Z,4.16
2019-02-27T07:08:29.431Z,4.14
2019-02-27T07:10:58.966Z,4.27
2019-02-27T07:13:22.060Z,4.42
2019-02-27T07:15:48.854Z,4.45
2019-02-27T07:18:14.673Z,4.47
2019-02-27T07:20:40.994Z,4.49
2019-02-27T07:23:07.322Z,4.47
2019-02-27T07:25:33.628Z,4.49
2019-02-27T07:27:59.933Z,4.57
2019-02-27T07:30:26.274Z,4.63
2019-02-27T07:32:52.571Z,4.69
2019-02-27T07:35:18.883Z,4.75
2019-02-27T07:37:48.074Z,4.53
2019-02-27T07:40:11.561Z,4.40
2019-02-27T07:42:37.874Z,4.43
2019-02-27T07:45:04.191Z,4.26
2019-02-27T07:47:30.508Z,4.26
2019-02-27T07:49:56.815Z,4.41
2019-02-27T07:52:23.196Z,4.55
2019-02-27T07:54:49.500Z,4.58
2019-02-27T07:57:15.815Z,4.65
2019-02-27T07:59:42.285Z,4.58
2019-02-27T08:02:08.594Z,4.59
2019-02-27T08:04:34.905Z,4.64
2019-02-27T08:07:01.221Z,4.65
2019-02-27T08:09:29.901Z,4.57
2019-02-27T08:11:53.845Z,4.58
2019-02-27T08:14:20.184Z,4.55
2019-02-27T08:16:47.983Z,4.61
2019-02-27T08:19:12.796Z,4.62
2019-02-27T08:21:39.113Z,4.60
2019-02-27T08:24:07.460Z,4.60
2019-02-27T08:26:31.730Z,5.33
2019-02-27T08:28:58.068Z,5.80
2019-02-27T08:31:27.906Z,5.47
2019-02-27T08:33:50.690Z,4.95
2019-02-27T08:36:16.996Z,4.81
2019-02-27T08:38:43.304Z,4.82
2019-02-27T08:41:09.653Z,4.78
2019-02-27T08:43:35.958Z,4.93
2019-02-27T08:46:03.111Z,5.06
2019-02-27T08:48:28.572Z,5.11
2019-02-27T08:50:54.877Z,5.00
2019-02-27T08:53:25.995Z,5.09
2019-02-27T08:55:47.513Z,5.24
2019-02-27T08:58:13.858Z,5.25
2019-02-27T09:00:40.173Z,5.43
2019-02-27T09:03:06.483Z,5.49
2019-02-27T09:05:32.816Z,5.51
2019-02-27T09:07:59.152Z,5.50
2019-02-27T09:10:26.618Z,5.53
2019-02-27T09:12:51.965Z,5.56
2019-02-27T09:15:18.117Z,5.68
2019-02-27T09:17:44.417Z,5.72
2019-02-27T09:20:12.127Z,5.69
2019-02-27T09:22:37.466Z,5.74
2019-02-27T09:25:03.380Z,5.86
2019-02-27T09:27:29.902Z,5.88
2019-02-27T09:29:56.206Z,5.89
2019-02-27T09:32:22.512Z,6.02
2019-02-27T09:34:52.713Z,5.95
2019-02-27T09:37:17.840Z,6.08
2019-02-27T09:39:43.977Z,6.24
2019-02-27T09:42:10.290Z,6.38
2019-02-27T09:44:36.725Z,6.46
2019-02-27T09:47:02.925Z,6.45
2019-02-27T09:49:29.223Z,6.42
2019-02-27T09:51:56.385Z,6.40
2019-02-27T09:54:21.859Z,6.26
2019-02-27T09:56:48.152Z,6.30
2019-02-27T09:59:16.726Z,6.34
2019-02-27T10:01:40.831Z,6.45
2019-02-27T10:04:07.137Z,6.46
2019-02-27T10:06:33.449Z,6.40
2019-02-27T10:08:59.921Z,6.41
2019-02-27T10:11:26.070Z,6.47
2019-02-27T10:13:52.401Z,6.49
2019-02-27T10:16:18.716Z,6.50
2019-02-27T10:18:45.025Z,6.44
2019-02-27T10:21:12.153Z,6.43
2019-02-27T10:23:37.664Z,6.44
2019-02-27T10:26:04.015Z,6.35
2019-02-27T10:28:30.325Z,6.20
2019-02-27T10:30:56.659Z,6.07
2019-02-27T10:33:22.987Z,5.99
2019-02-27T10:35:49.291Z,5.99
2019-02-27T10:38:15.616Z,6.09
2019-02-27T10:40:41.920Z,6.16
2019-02-27T10:43:08.294Z,6.17
2019-02-27T10:45:34.600Z,6.10
2019-02-27T10:48:00.917Z,6.10
2019-02-27T10:50:27.227Z,6.16
2019-02-27T10:52:53.527Z,6.06
2019-02-27T10:55:19.834Z,5.93
2019-02-27T10:57:46.135Z,5.85
2019-02-27T11:00:12.447Z,5.89
2019-02-27T11:02:38.755Z,6.04
2019-02-27T11:05:05.066Z,6.00
2019-02-27T11:07:31.373Z,5.94
2019-02-27T11:09:57.685Z,5.94
2019-02-27T11:12:23.994Z,6.03
2019-02-27T11:14:50.309Z,6.09
2019-02-27T11:17:16.620Z,6.23
2019-02-27T11:19:42.932Z,6.25
2019-02-27T11:22:09.243Z,6.20
2019-02-27T11:24:35.547Z,6.17
2019-02-27T11:27:03.412Z,6.22
2019-02-27T11:29:28.182Z,6.27
2019-02-27T11:31:54.492Z,6.22
2019-02-27T11:34:20.825Z,6.25
2019-02-27T11:36:47.139Z,6.12
2019-02-27T11:39:13.450Z,6.21
2019-02-27T11:41:39.756Z,6.27
2019-02-27T11:44:06.091Z,6.22
2019-02-27T11:46:35.058Z,6.21
2019-02-27T11:48:59.729Z,6.27
2019-02-27T11:51:25.067Z,6.27
2019-02-27T11:53:51.384Z,6.22
2019-02-27T11:56:20.268Z,6.16
2019-02-27T11:58:44.048Z,6.26
2019-02-27T12:01:12.133Z,6.26
2019-02-27T12:03:36.677Z,6.27
2019-02-27T12:06:05.367Z,6.27
2019-02-27T12:08:30.260Z,6.25
2019-02-27T12:10:55.666Z,6.30
2019-02-27T12:13:22.029Z,6.32
2019-02-27T12:15:48.337Z,6.36
2019-02-27T12:18:14.754Z,6.46
2019-02-27T12:20:41.056Z,6.46
2019-02-27T12:23:07.422Z,6.49
2019-02-27T12:25:33.815Z,6.52
2019-02-27T12:28:00.123Z,6.49
2019-02-27T12:30:26.520Z,6.48
2019-02-27T12:32:55.953Z,6.56
2019-02-27T12:35:19.955Z,6.60
2019-02-27T12:37:46.633Z,6.77
2019-02-27T12:40:13.421Z,6.86
2019-02-27T12:42:42.494Z,6.81
2019-02-27T12:45:06.721Z,6.60
2019-02-27T12:47:33.539Z,6.55
2019-02-27T12:49:59.760Z,6.52
2019-02-27T12:52:26.070Z,6.53
2019-02-27T12:54:59.073Z,6.38
2019-02-27T12:57:21.598Z,5.77
2019-02-27T12:59:47.965Z,5.21
2019-02-27T13:02:14.268Z,5.09
2019-02-27T13:04:40.580Z,5.07
2019-02-27T13:07:10.393Z,5.04
2019-02-27T13:09:33.204Z,4.97
2019-02-27T13:11:59.508Z,4.79
2019-02-27T13:14:25.821Z,4.82
2019-02-27T13:16:52.138Z,4.86
2019-02-27T13:19:18.447Z,4.74
2019-02-27T13:21:44.766Z,4.82
2019-02-27T13:24:15.064Z,4.78
2019-02-27T13:26:37.400Z,4.73
2019-02-27T13:29:03.711Z,4.73
2019-02-27T13:31:30.026Z,4.77
2019-02-27T13:33:56.340Z,4.82
2019-02-27T13:36:22.646Z,4.92
2019-02-27T13:38:49.572Z,5.05
2019-02-27T13:41:15.503Z,5.11
2019-02-27T13:43:41.584Z,5.03
2019-02-27T13:46:07.891Z,5.04
2019-02-27T13:48:34.198Z,5.18
2019-02-27T13:51:02.494Z,5.20
2019-02-27T13:53:26.891Z,5.23
2019-02-27T13:55:53.682Z,5.24
2019-02-27T13:58:19.439Z,5.38
2019-02-27T14:00:45.749Z,5.48
2019-02-27T14:03:12.660Z,5.48
2019-02-27T14:05:38.372Z,5.53
2019-02-27T14:08:04.688Z,5.58
2019-02-27T14:10:31.041Z,5.71
2019-02-27T14:12:57.349Z,5.83
2019-02-27T14:15:26.925Z,6.01
2019-02-27T14:17:49.971Z,6.18
2019-02-27T14:20:16.283Z,6.12
2019-02-27T14:22:42.590Z,5.95
2019-02-27T14:25:08.910Z,5.97
2019-02-27T14:27:35.225Z,6.00
2019-02-27T14:30:03.815Z,6.09
2019-02-27T14:32:27.849Z,5.96
2019-02-27T14:34:54.181Z,5.93
2019-02-27T14:37:20.495Z,6.02
2019-02-27T14:39:46.805Z,6.10
2019-02-27T14:42:13.119Z,6.14
2019-02-27T14:44:39.429Z,6.15
2019-02-27T14:47:05.748Z,5.99
2019-02-27T14:49:32.059Z,6.03
2019-02-27T14:51:58.367Z,5.92
2019-02-27T14:54:26.140Z,5.99
2019-02-27T14:56:50.989Z,5.97
2019-02-27T14:59:17.304Z,5.90
2019-02-27T15:01:48.621Z,5.90
2019-02-27T15:04:09.925Z,5.95
2019-02-27T15:06:36.241Z,6.04
2019-02-27T15:09:03.538Z,6.05
2019-02-27T15:11:31.043Z,6.03
2019-02-27T15:13:55.182Z,6.05
2019-02-27T15:16:21.918Z,6.04
2019-02-27T15:18:47.800Z,5.85
2019-02-27T15:21:14.117Z,5.86
2019-02-27T15:23:40.432Z,5.80
2019-02-27T15:26:06.735Z,5.76
2019-02-27T15:28:33.468Z,5.72
2019-02-27T15:30:59.357Z,5.74
2019-02-27T15:33:25.683Z,5.76
2019-02-27T15:35:55.282Z,5.78
2019-02-27T15:38:18.305Z,5.67
2019-02-27T15:40:45.261Z,5.53
2019-02-27T15:43:11.662Z,5.56
2019-02-27T15:45:37.249Z,5.52
2019-02-27T15:48:06.439Z,5.51
2019-02-27T15:50:29.860Z,5.52
2019-02-27T15:52:58.447Z,5.53
2019-02-27T15:55:24.767Z,5.49
2019-02-27T15:57:53.534Z,5.54
2019-02-27T16:00:18.574Z,5.51
2019-02-27T16:02:43.755Z,5.47
2019-02-27T16:05:10.038Z,5.51
2019-02-27T16:07:36.354Z,5.48
2019-02-27T16:10:06.811Z,5.52
2019-02-27T16:12:28.989Z,5.57
2019-02-27T16:14:55.296Z,5.52
2019-02-27T16:17:21.600Z,5.37
2019-02-27T16:19:47.957Z,5.31
2019-02-27T16:22:14.265Z,5.25
2019-02-27T16:24:43.832Z,5.24
2019-02-27T16:27:06.935Z,5.17
2019-02-27T16:29:33.320Z,5.22
2019-02-27T16:31:59.641Z,5.17
2019-02-27T16:34:25.980Z,5.18
2019-02-27T16:36:52.315Z,5.19
2019-02-27T16:39:18.678Z,5.20
2019-02-27T16:41:45.190Z,5.18
2019-02-27T16:44:11.300Z,5.23
2019-02-27T16:46:43.591Z,5.24
2019-02-27T16:49:03.967Z,5.21
2019-02-27T16:51:31.232Z,5.19
2019-02-27T16:53:56.631Z,5.18
2019-02-27T16:56:22.918Z,5.16
2019-02-27T16:58:49.219Z,5.11
2019-02-27T17:01:15.531Z,5.10
2019-02-27T17:03:41.845Z,5.09
2019-02-27T17:06:08.180Z,5.15
2019-02-27T17:08:35.645Z,5.20
2019-02-27T17:11:00.805Z,5.27
2019-02-27T17:13:27.111Z,5.24
2019-02-27T17:15:53.422Z,5.20
2019-02-27T17:18:19.726Z,5.19
2019-02-27T17:20:47.260Z,5.21
2019-02-27T17:23:12.348Z,5.25
2019-02-27T17:25:38.650Z,5.34
2019-02-27T17:28:04.956Z,5.37
2019-02-27T17:30:36.589Z,5.35
2019-02-27T17:32:57.685Z,5.34
2019-02-27T17:35:24.251Z,5.34
2019-02-27T17:37:50.358Z,5.33
2019-02-27T17:40:16.664Z,5.31
2019-02-27T17:42:42.977Z,5.27
2019-02-27T17:45:09.990Z,5.26
2019-02-27T17:47:35.599Z,5.23
2019-02-27T17:50:01.912Z,5.21
2019-02-27T17:52:28.224Z,5.25
2019-02-27T17:54:54.550Z,5.25
2019-02-27T17:57:24.173Z,5.23
2019-02-27T17:59:47.175Z,5.26
2019-02-27T18:02:13.487Z,5.26
2019-02-27T18:04:39.801Z,5.28
2019-02-27T18:07:09.188Z,5.26
2019-02-27T18:09:32.685Z,5.28
2019-02-27T18:11:58.995Z,5.25
2019-02-27T18:14:25.479Z,5.20
2019-02-27T18:16:51.787Z,5.20
2019-02-27T18:19:18.302Z,5.19
2019-02-27T18:21:44.602Z,5.17
2019-02-27T18:24:11.028Z,5.16
2019-02-27T18:26:37.336Z,5.11
2019-02-27T18:29:04.315Z,5.12
2019-02-27T18:31:30.025Z,5.07
2019-02-27T18:33:56.335Z,5.03
2019-02-27T18:36:22.636Z,4.98
2019-02-27T18:38:49.367Z,4.92
2019-02-27T18:41:15.435Z,4.83
2019-02-27T18:43:41.747Z,4.74
2019-02-27T18:46:08.068Z,4.64
2019-02-27T18:48:34.390Z,4.58
2019-02-27T18:51:00.733Z,4.50
2019-02-27T18:53:36.962Z,4.48
2019-02-27T18:56:01.935Z,4.45
2019-02-27T18:58:47.450Z,4.43
2019-02-27T19:01:09.973Z,4.39
2019-02-27T19:03:34.722Z,4.33
2019-02-27T19:06:01.032Z,4.30
2019-02-27T19:08:28.024Z,4.31
2019-02-27T19:10:53.649Z,4.33
2019-02-27T19:13:19.988Z,4.35
2019-02-27T19:15:46.473Z,4.35
2019-02-27T19:18:12.705Z,4.35
2019-02-27T19:20:39.014Z,4.29
2019-02-27T19:23:05.347Z,4.23
2019-02-27T19:25:34.755Z,4.18
2019-02-27T19:27:57.994Z,4.15
2019-02-27T19:30:24.304Z,4.07
2019-02-27T19:32:50.615Z,4.07
2019-02-27T19:35:20.991Z,4.04
2019-02-27T19:37:43.231Z,4.00
2019-02-27T19:40:09.543Z,3.98
2019-02-27T19:42:35.852Z,4.01
2019-02-27T19:45:05.185Z,4.08
2019-02-27T19:47:30.915Z,4.10
2019-02-27T19:49:57.236Z,4.11
2019-02-27T19:52:26.932Z,4.13
2019-02-27T19:54:52.632Z,4.18
2019-02-27T19:57:16.161Z,4.19
2019-02-27T19:59:42.514Z,4.17
2019-02-27T20:02:08.825Z,4.18
2019-02-27T20:04:35.132Z,4.22
2019-02-27T20:07:01.769Z,4.23
2019-02-27T20:09:27.752Z,4.17
2019-02-27T20:11:54.080Z,4.05
2019-02-27T20:14:20.401Z,3.97
2019-02-27T20:16:46.708Z,3.86
2019-02-27T20:19:22.182Z,3.85
2019-02-27T20:21:39.352Z,3.58
2019-02-27T20:24:14.208Z,3.37
2019-02-27T20:26:32.221Z,3.25
2019-02-27T20:28:58.544Z,3.20
2019-02-27T20:31:24.856Z,3.21
2019-02-27T20:36:17.253Z,3.07
2019-02-27T20:38:43.610Z,3.14
2019-02-27T20:41:09.946Z,3.20
2019-02-27T20:43:36.537Z,3.33
2019-02-27T20:46:02.848Z,3.47
2019-02-27T20:48:29.159Z,3.46
2019-02-27T20:50:55.545Z,3.46
2019-02-27T20:53:21.872Z,3.55
2019-02-27T20:55:48.092Z,3.59
2019-02-27T20:58:16.715Z,3.72
2019-02-27T21:00:40.713Z,3.83
2019-02-27T21:03:07.024Z,3.97
2019-02-27T21:05:33.332Z,4.01
2019-02-27T21:08:02.110Z,4.00
2019-02-27T21:10:25.948Z,3.87
2019-02-27T21:12:54.233Z,3.82
2019-02-27T21:15:18.566Z,3.71
2019-02-27T21:17:44.875Z,3.53
2019-02-27T21:20:12.094Z,3.41
2019-02-27T21:22:37.544Z,3.36
2019-02-27T21:25:03.848Z,3.42
2019-02-27T21:27:32.956Z,3.41
2019-02-27T21:29:56.769Z,3.45
2019-02-27T21:32:23.143Z,3.51
2019-02-27T21:34:49.558Z,3.51
2019-02-27T21:37:16.267Z,3.51
2019-02-27T21:39:42.082Z,3.46
2019-02-27T21:42:08.384Z,3.37
2019-02-27T21:44:34.749Z,3.29
2019-02-27T21:47:01.065Z,3.04
2019-02-27T21:49:31.838Z,2.94
2019-02-27T21:51:53.689Z,2.89
2019-02-27T21:54:19.997Z,2.90
2019-02-27T21:56:49.209Z,2.88
2019-02-27T21:59:12.624Z,2.83
2019-02-27T22:01:38.928Z,2.91
2019-02-27T22:04:05.242Z,2.88
2019-02-27T22:06:31.549Z,2.79
2019-02-27T22:08:57.868Z,2.74
2019-02-27T22:11:26.849Z,2.79
2019-02-27T22:13:50.476Z,2.96
2019-02-27T22:16:16.787Z,3.07
2019-02-27T22:18:46.755Z,2.95
2019-02-27T22:21:09.410Z,3.00
2019-02-27T22:23:35.723Z,2.87
2019-02-27T22:26:03.103Z,2.86
2019-02-27T22:28:28.843Z,2.95
2019-02-27T22:30:54.647Z,2.93
2019-02-27T22:33:23.053Z,2.83
2019-02-27T22:35:47.269Z,2.72
2019-02-27T22:38:13.572Z,2.62
2019-02-27T22:40:39.880Z,2.79
2019-02-27T22:43:06.184Z,2.76
2019-02-27T22:45:32.499Z,2.93
2019-02-27T22:47:58.802Z,2.90
2019-02-27T22:50:25.121Z,2.85
2019-02-27T22:52:54.507Z,2.90
2019-02-27T22:55:17.733Z,2.76
2019-02-27T22:57:44.041Z,2.86
2019-02-27T23:00:11.408Z,2.89
2019-02-27T23:02:36.656Z,2.79
2019-02-27T23:05:04.774Z,2.68
2019-02-27T23:07:29.269Z,2.80
2019-02-27T23:09:57.525Z,2.67
2019-02-27T23:12:21.975Z,2.80
2019-02-27T23:14:50.211Z,2.86
2019-02-27T23:17:14.753Z,2.95
2019-02-27T23:19:46.088Z,2.99
2019-02-27T23:22:07.459Z,3.06
2019-02-27T23:24:33.851Z,3.14
2019-02-27T23:27:00.310Z,3.96
2019-02-27T23:29:26.671Z,4.16
2019-02-27T23:31:54.755Z,3.70
2019-02-27T23:34:19.284Z,3.41
2019-02-27T23:36:45.598Z,3.34
2019-02-27T23:39:11.909Z,3.28
2019-02-27T23:41:38.242Z,3.20
2019-02-27T23:44:05.378Z,3.26
2019-02-27T23:46:30.873Z,3.26
2019-02-27T23:48:57.184Z,3.23
2019-02-27T23:51:23.494Z,3.16
2019-02-27T23:53:49.819Z,3.14
2019-02-27T23:56:20.247Z,3.13
2019-02-27T23:58:42.414Z,3.21
